Terminal Aerodrome Forecast
Issued by NWS Wilmington, OH

Home | Current Version | Previous Version | Text Only | Print | Product List | Glossary On
Versions: 1 2 3 4 5 6 7 8 9 10 11 12 13 14 15 16 17 18 19 20 21 22 23
000
FTUS41 KILN 292320
TAFCVG
TAF
KCVG 292320Z 3000/3106 18004KT P6SM SCT040 BKN150
      TEMPO 3009/3012 5SM BR
     FM301400 21008KT P6SM BKN040
     FM301800 20008KT P6SM VCSH BKN040
     FM310100 19004KT P6SM SCT050 BKN150=

USA.gov is the U.S. government's official web portal to all federal, state and local government web resources and services.